createdAt,value
2022-08-26T00:00:47.955Z,26.36
2022-08-26T00:01:57.134Z,26.45
2022-08-26T00:03:06.054Z,26.66
2022-08-26T00:04:15.184Z,26.60
2022-08-26T00:05:22.985Z,26.23
2022-08-26T00:06:32.828Z,25.94
2022-08-26T00:07:40.602Z,25.95
2022-08-26T00:08:54.651Z,26.22
2022-08-26T00:10:02.960Z,26.45
2022-08-26T00:11:10.380Z,26.75
2022-08-26T00:12:21.586Z,26.82
2022-08-26T00:13:49.453Z,26.90
2022-08-26T00:14:56.866Z,26.92
2022-08-26T00:16:05.381Z,26.86
2022-08-26T00:17:14.190Z,26.53
2022-08-26T00:18:24.167Z,26.74
2022-08-26T00:19:36.476Z,26.88
2022-08-26T00:20:46.196Z,26.98
2022-08-26T00:21:57.098Z,26.87
2022-08-26T00:23:06.833Z,26.32
2022-08-26T00:24:15.060Z,26.38
2022-08-26T00:25:23.598Z,26.44
2022-08-26T00:26:32.139Z,26.21
2022-08-26T00:27:41.193Z,26.81
2022-08-26T00:28:49.504Z,27.21
2022-08-26T00:29:57.591Z,27.14
2022-08-26T00:31:06.225Z,27.71
2022-08-26T00:32:15.482Z,27.70
2022-08-26T00:33:24.941Z,27.73
2022-08-26T00:34:36.052Z,28.01
2022-08-26T00:35:47.038Z,28.11
2022-08-26T00:36:54.816Z,27.57
2022-08-26T00:38:03.072Z,27.59
2022-08-26T00:39:12.563Z,27.35
2022-08-26T00:40:24.391Z,27.50
2022-08-26T00:41:36.938Z,27.94
2022-08-26T00:42:46.015Z,28.23
2022-08-26T00:43:54.659Z,28.12
2022-08-26T00:45:10.259Z,28.24
2022-08-26T00:46:30.904Z,28.49
2022-08-26T00:47:47.501Z,28.73
2022-08-26T00:49:01.728Z,28.42
2022-08-26T00:50:14.858Z,28.04
2022-08-26T00:51:29.766Z,28.22
2022-08-26T00:52:40.103Z,28.23
2022-08-26T00:54:14.466Z,28.42
2022-08-26T00:55:43.085Z,28.41
2022-08-26T00:57:02.889Z,28.66
2022-08-26T00:58:12.491Z,28.91
2022-08-26T00:59:22.715Z,29.17
2022-08-26T01:00:32.588Z,29.34
2022-08-26T01:01:42.012Z,29.49
2022-08-26T01:02:50.291Z,29.22
2022-08-26T01:03:58.047Z,29.06
2022-08-26T01:05:08.230Z,29.27
2022-08-26T01:06:19.169Z,29.32
2022-08-26T01:07:30.038Z,29.53
2022-08-26T01:08:39.016Z,29.70
2022-08-26T01:09:46.460Z,29.58
2022-08-26T01:10:56.735Z,29.87
2022-08-26T01:12:05.032Z,29.74
2022-08-26T01:13:12.773Z,29.74
2022-08-26T01:14:22.007Z,29.66
2022-08-26T01:15:45.518Z,29.83
2022-08-26T01:16:56.436Z,30.05
2022-08-26T01:18:07.560Z,30.19
2022-08-26T01:19:37.671Z,30.18
2022-08-26T01:21:07.580Z,30.16
2022-08-26T01:22:26.596Z,30.46
2022-08-26T01:23:39.752Z,30.56
2022-08-26T01:24:49.800Z,30.58
2022-08-26T01:25:59.695Z,30.68
2022-08-26T01:27:10.433Z,30.69
2022-08-26T01:28:26.059Z,30.74
2022-08-26T01:29:36.496Z,30.75
2022-08-26T01:30:44.352Z,30.85
2022-08-26T01:31:56.426Z,30.99
2022-08-26T01:33:04.739Z,31.06
2022-08-26T01:34:20.341Z,31.25
2022-08-26T01:35:31.647Z,31.26
2022-08-26T01:36:40.663Z,31.42
2022-08-26T01:37:50.533Z,31.49
2022-08-26T01:39:02.236Z,31.62
2022-08-26T01:40:17.975Z,31.58
2022-08-26T01:41:29.170Z,31.66
2022-08-26T01:42:37.257Z,31.78
2022-08-26T01:43:48.512Z,31.92
2022-08-26T01:45:00.945Z,32.27
2022-08-26T01:46:09.159Z,32.40
2022-08-26T01:47:17.801Z,32.59
2022-08-26T01:48:30.407Z,32.68
2022-08-26T01:49:38.096Z,32.84
2022-08-26T01:50:45.397Z,33.04
2022-08-26T01:51:53.981Z,33.35
2022-08-26T01:53:05.306Z,33.86
2022-08-26T01:54:13.829Z,33.95
2022-08-26T01:55:32.146Z,34.23
2022-08-26T01:56:43.277Z,34.44
2022-08-26T01:57:56.253Z,34.71
2022-08-26T01:59:06.783Z,34.95
2022-08-26T02:00:16.227Z,35.20
2022-08-26T02:01:24.832Z,35.54
2022-08-26T02:02:37.467Z,35.75
2022-08-26T02:03:53.947Z,35.92
2022-08-26T02:05:04.146Z,36.24
2022-08-26T02:06:12.091Z,36.58
2022-08-26T02:07:26.653Z,36.84
2022-08-26T02:08:48.494Z,36.94
2022-08-26T02:09:58.219Z,37.17
2022-08-26T02:11:05.977Z,37.42
2022-08-26T02:12:14.642Z,37.64
2022-08-26T02:13:23.661Z,37.97
2022-08-26T02:14:43.740Z,38.20
2022-08-26T02:15:52.848Z,38.57
2022-08-26T02:17:00.098Z,38.66
2022-08-26T02:18:09.558Z,38.85
2022-08-26T02:19:32.367Z,39.11
2022-08-26T02:20:40.327Z,39.47
2022-08-26T02:21:51.275Z,39.76
2022-08-26T02:22:59.762Z,40.04
2022-08-26T02:24:12.775Z,40.06
2022-08-26T02:25:42.781Z,40.36
2022-08-26T02:26:52.523Z,40.67
2022-08-26T02:28:00.051Z,40.84
2022-08-26T02:29:19.541Z,41.13
2022-08-26T02:30:33.312Z,41.36
2022-08-26T02:31:42.368Z,41.39
2022-08-26T02:32:52.668Z,41.40
2022-08-26T02:34:21.576Z,41.56
2022-08-26T02:35:29.986Z,41.78
2022-08-26T02:36:38.179Z,41.82
2022-08-26T02:37:52.441Z,41.94
2022-08-26T02:39:01.572Z,42.14
2022-08-26T02:40:13.950Z,42.16
2022-08-26T02:41:27.847Z,42.42
2022-08-26T02:42:40.124Z,42.55
2022-08-26T02:43:51.776Z,42.66
2022-08-26T02:45:01.725Z,42.75
2022-08-26T02:46:11.634Z,43.00
2022-08-26T02:47:35.448Z,42.92
2022-08-26T02:48:45.852Z,42.81
2022-08-26T02:49:56.883Z,42.78
2022-08-26T02:51:08.181Z,42.73
2022-08-26T02:52:15.947Z,42.80
2022-08-26T02:53:28.260Z,42.72
2022-08-26T02:54:41.127Z,42.68
2022-08-26T02:55:51.004Z,42.72
2022-08-26T02:56:58.442Z,42.79
2022-08-26T02:58:07.993Z,42.68
2022-08-26T02:59:16.935Z,42.61
2022-08-26T03:00:26.543Z,42.54
2022-08-26T03:01:37.985Z,42.51
2022-08-26T03:02:46.371Z,42.29
2022-08-26T03:03:54.331Z,42.15
2022-08-26T03:05:02.378Z,42.21
2022-08-26T03:06:11.037Z,42.16
2022-08-26T03:07:19.417Z,42.13
2022-08-26T03:08:30.238Z,42.20
2022-08-26T03:09:38.917Z,42.30
2022-08-26T03:10:50.799Z,42.35
2022-08-26T03:11:58.294Z,42.36
2022-08-26T03:13:07.865Z,42.42
2022-08-26T03:14:18.812Z,42.60
2022-08-26T03:15:28.214Z,42.72
2022-08-26T03:16:43.114Z,42.72
2022-08-26T03:17:50.870Z,42.87
2022-08-26T03:18:58.731Z,42.83
2022-08-26T03:20:11.169Z,42.73
2022-08-26T03:21:26.729Z,42.98
2022-08-26T03:22:35.045Z,43.00
2022-08-26T03:23:42.764Z,43.03
2022-08-26T03:24:53.869Z,43.20
2022-08-26T03:26:01.466Z,43.19
2022-08-26T03:27:09.336Z,43.33
2022-08-26T03:28:16.715Z,43.36
2022-08-26T03:29:50.506Z,43.42
2022-08-26T03:30:59.096Z,43.58
2022-08-26T03:32:07.114Z,43.65
2022-08-26T03:33:14.640Z,43.64
2022-08-26T03:34:24.711Z,43.79
2022-08-26T03:35:45.041Z,44.02
2022-08-26T03:36:56.461Z,44.07
2022-08-26T03:38:05.171Z,44.03
2022-08-26T03:39:13.913Z,44.16
2022-08-26T03:40:22.297Z,44.13
2022-08-26T03:41:34.526Z,44.35
2022-08-26T03:42:45.358Z,44.28
2022-08-26T03:43:53.449Z,44.37
2022-08-26T03:45:02.428Z,44.33
2022-08-26T03:46:13.767Z,44.29
2022-08-26T03:47:23.351Z,44.55
2022-08-26T03:48:32.213Z,44.67
2022-08-26T03:49:43.142Z,44.72
2022-08-26T03:50:51.506Z,44.69
2022-08-26T03:51:59.696Z,44.69
2022-08-26T03:53:12.694Z,44.90
2022-08-26T03:54:24.187Z,44.96
2022-08-26T03:55:35.248Z,45.18
2022-08-26T03:56:46.431Z,45.09
2022-08-26T03:57:54.736Z,45.06
2022-08-26T03:59:03.860Z,45.19
2022-08-26T04:00:18.536Z,45.09
2022-08-26T04:01:30.468Z,45.21
2022-08-26T04:02:40.295Z,45.25
2022-08-26T04:04:00.895Z,45.42
2022-08-26T04:05:13.311Z,45.53
2022-08-26T04:06:21.048Z,45.50
2022-08-26T04:07:32.066Z,45.66
2022-08-26T04:08:41.318Z,45.83
2022-08-26T04:09:52.016Z,46.02
2022-08-26T04:11:02.642Z,46.02
2022-08-26T04:12:12.425Z,45.99
2022-08-26T04:13:22.228Z,46.05
2022-08-26T04:14:33.529Z,46.19
2022-08-26T04:15:41.568Z,46.08
2022-08-26T04:16:57.908Z,46.08
2022-08-26T04:18:06.428Z,46.05
2022-08-26T04:19:17.324Z,46.08
2022-08-26T04:20:29.348Z,45.94
2022-08-26T04:21:40.020Z,45.94
2022-08-26T04:22:51.153Z,46.25
2022-08-26T04:24:00.305Z,46.17
2022-08-26T04:25:11.733Z,46.13
2022-08-26T04:26:23.001Z,46.17
2022-08-26T04:27:31.800Z,46.22
2022-08-26T04:28:41.959Z,46.34
2022-08-26T04:29:53.578Z,46.39
2022-08-26T04:31:05.117Z,46.54
2022-08-26T04:32:13.473Z,46.73
2022-08-26T04:33:32.562Z,46.69
2022-08-26T04:34:50.634Z,46.81
2022-08-26T04:36:06.681Z,47.01
2022-08-26T04:37:14.704Z,46.92
2022-08-26T04:38:25.752Z,47.22
2022-08-26T04:39:39.417Z,47.68
2022-08-26T04:40:48.147Z,48.07
2022-08-26T04:41:57.713Z,47.85
2022-08-26T04:43:09.143Z,48.36
2022-08-26T04:44:18.777Z,49.12
2022-08-26T04:45:31.115Z,49.18
2022-08-26T04:46:43.656Z,49.12
2022-08-26T04:47:54.589Z,49.37
2022-08-26T04:49:02.035Z,49.38
2022-08-26T04:50:10.952Z,49.35
2022-08-26T04:51:18.445Z,49.33
2022-08-26T04:52:28.118Z,49.42
2022-08-26T04:53:37.253Z,49.57
2022-08-26T04:54:44.928Z,49.54
2022-08-26T04:55:55.721Z,49.67
2022-08-26T04:57:06.138Z,49.71
2022-08-26T04:58:18.291Z,50.30
2022-08-26T04:59:26.750Z,50.86
2022-08-26T05:00:38.850Z,51.39
2022-08-26T05:01:51.790Z,51.62
2022-08-26T05:03:01.914Z,51.92
2022-08-26T05:04:09.407Z,52.31
2022-08-26T05:05:17.070Z,52.58
2022-08-26T05:06:29.902Z,52.81
2022-08-26T05:07:47.350Z,52.86
2022-08-26T05:09:01.717Z,53.61
2022-08-26T05:10:11.653Z,53.52
2022-08-26T05:11:20.378Z,53.24
2022-08-26T05:12:33.559Z,53.26
2022-08-26T05:13:42.082Z,53.53
2022-08-26T05:14:50.596Z,53.91
2022-08-26T05:16:04.298Z,54.94
2022-08-26T05:17:15.576Z,55.31
2022-08-26T05:18:26.626Z,55.07
2022-08-26T05:19:37.103Z,55.07
2022-08-26T05:20:54.742Z,55.37
2022-08-26T05:22:02.938Z,55.44
2022-08-26T05:23:11.357Z,55.77
2022-08-26T05:24:20.927Z,56.02
2022-08-26T05:25:30.938Z,56.27
2022-08-26T05:26:39.396Z,56.32
2022-08-26T05:27:47.846Z,56.35
2022-08-26T05:28:57.635Z,56.18
2022-08-26T05:30:08.409Z,56.29
2022-08-26T05:31:24.897Z,56.50
2022-08-26T05:32:34.227Z,57.30
2022-08-26T05:33:45.374Z,57.49
2022-08-26T05:34:58.644Z,57.60
2022-08-26T05:36:11.638Z,58.17
2022-08-26T05:37:23.224Z,58.59
2022-08-26T05:38:34.713Z,58.66
2022-08-26T05:39:43.630Z,58.89
2022-08-26T05:41:01.599Z,58.70
2022-08-26T05:42:11.751Z,58.54
2022-08-26T05:43:20.757Z,58.81
2022-08-26T05:44:35.897Z,58.92
2022-08-26T05:46:07.781Z,58.99
2022-08-26T05:47:15.735Z,59.11
2022-08-26T05:48:24.263Z,58.87
2022-08-26T05:49:33.783Z,58.95
2022-08-26T05:50:50.621Z,58.93
2022-08-26T05:51:58.253Z,59.11
2022-08-26T05:53:06.463Z,59.09
2022-08-26T05:54:21.687Z,59.27
2022-08-26T05:55:31.943Z,59.73
2022-08-26T05:56:43.098Z,59.77
2022-08-26T05:57:53.068Z,60.06
2022-08-26T05:59:00.689Z,60.42
2022-08-26T06:00:11.717Z,60.62
2022-08-26T06:01:25.162Z,60.37
2022-08-26T06:02:34.398Z,60.60
2022-08-26T06:03:44.482Z,60.56
2022-08-26T06:04:54.745Z,60.58
2022-08-26T06:06:10.646Z,61.08
2022-08-26T06:07:18.705Z,60.98
2022-08-26T06:08:30.367Z,61.57
2022-08-26T06:09:41.789Z,61.74
2022-08-26T06:10:56.771Z,62.11
2022-08-26T06:12:04.792Z,62.17
2022-08-26T06:13:13.193Z,62.44
2022-08-26T06:14:25.481Z,62.76
2022-08-26T06:15:43.961Z,62.75
2022-08-26T06:16:55.215Z,62.99
2022-08-26T06:18:04.617Z,63.21
2022-08-26T06:19:16.706Z,62.79
2022-08-26T06:20:26.403Z,62.43
2022-08-26T06:21:37.090Z,62.54
2022-08-26T06:23:07.436Z,62.84
2022-08-26T06:24:35.831Z,63.13
2022-08-26T06:25:44.878Z,63.19
2022-08-26T06:26:54.218Z,63.49
2022-08-26T06:28:01.963Z,63.19
2022-08-26T06:29:11.998Z,63.43
2022-08-26T06:30:26.095Z,62.96
2022-08-26T06:31:40.095Z,62.79
2022-08-26T06:32:53.939Z,62.98
2022-08-26T06:34:02.051Z,63.50
2022-08-26T06:35:11.897Z,63.75
2022-08-26T06:36:24.437Z,63.77
2022-08-26T06:37:34.039Z,63.76
2022-08-26T06:38:43.366Z,63.52
2022-08-26T06:39:51.577Z,64.03
2022-08-26T06:41:02.259Z,64.16
2022-08-26T06:42:12.081Z,63.89
2022-08-26T06:43:24.972Z,63.83
2022-08-26T06:44:32.657Z,63.82
2022-08-26T06:45:41.397Z,63.80
2022-08-26T06:46:50.508Z,63.87
2022-08-26T06:47:58.452Z,64.33
2022-08-26T06:49:05.551Z,64.91
2022-08-26T06:50:12.958Z,65.42
2022-08-26T06:51:23.659Z,65.41
2022-08-26T06:52:30.840Z,65.23
2022-08-26T06:53:41.192Z,65.40
2022-08-26T06:54:48.483Z,65.41
2022-08-26T06:55:59.643Z,65.58
2022-08-26T06:57:10.283Z,65.66
2022-08-26T06:58:18.244Z,65.69
2022-08-26T06:59:27.610Z,65.80
2022-08-26T07:00:38.821Z,65.82
2022-08-26T07:01:49.968Z,65.89
2022-08-26T07:02:57.169Z,65.67
2022-08-26T07:04:10.538Z,65.64
2022-08-26T07:05:21.916Z,65.68
2022-08-26T07:06:33.357Z,65.75
2022-08-26T07:07:40.724Z,66.01
2022-08-26T07:08:54.595Z,66.27
2022-08-26T07:10:01.555Z,66.15
2022-08-26T07:11:11.816Z,66.16
2022-08-26T07:12:20.907Z,66.15
2022-08-26T07:13:31.035Z,66.15
2022-08-26T07:14:41.369Z,66.10
2022-08-26T07:16:03.164Z,65.97
2022-08-26T07:17:14.316Z,65.81
2022-08-26T07:18:24.649Z,65.98
2022-08-26T07:19:36.341Z,66.19
2022-08-26T07:20:44.853Z,66.31
2022-08-26T07:21:53.021Z,66.34
2022-08-26T07:23:04.635Z,66.41
2022-08-26T07:24:16.027Z,66.33
2022-08-26T07:25:25.060Z,66.21
2022-08-26T07:26:33.590Z,66.34
2022-08-26T07:27:46.991Z,66.05
2022-08-26T07:29:03.932Z,65.91
2022-08-26T07:30:11.863Z,65.95
2022-08-26T07:31:24.191Z,66.18
2022-08-26T07:32:31.662Z,66.56
2022-08-26T07:33:40.090Z,66.33
2022-08-26T07:34:51.124Z,66.24
2022-08-26T07:35:58.387Z,66.16
2022-08-26T07:37:08.737Z,65.93
2022-08-26T07:38:17.860Z,65.95
2022-08-26T07:39:25.336Z,66.17
2022-08-26T07:40:32.681Z,66.21
2022-08-26T07:41:42.021Z,66.01
2022-08-26T07:42:53.523Z,65.88
2022-08-26T07:44:01.366Z,65.80
2022-08-26T07:45:11.601Z,66.08
2022-08-26T07:46:27.242Z,66.42
2022-08-26T07:47:40.377Z,66.88
2022-08-26T07:48:49.872Z,67.59
2022-08-26T07:49:57.947Z,67.73
2022-08-26T07:51:05.720Z,67.66
2022-08-26T07:52:15.326Z,67.58
2022-08-26T07:53:24.162Z,67.55
2022-08-26T07:54:32.827Z,67.57
2022-08-26T07:55:40.983Z,67.55
2022-08-26T07:56:51.315Z,67.34
2022-08-26T07:57:59.089Z,67.51
2022-08-26T07:59:13.527Z,67.85
2022-08-26T08:00:23.285Z,68.30
2022-08-26T08:01:35.107Z,68.51
2022-08-26T08:02:48.405Z,68.58
2022-08-26T08:03:58.276Z,68.81
2022-08-26T08:05:08.298Z,68.90
2022-08-26T08:06:15.522Z,69.11
2022-08-26T08:07:38.727Z,69.17
2022-08-26T08:08:52.964Z,69.49
2022-08-26T08:10:09.757Z,69.62
2022-08-26T08:11:24.568Z,69.53
2022-08-26T08:12:31.833Z,69.82
2022-08-26T08:13:42.451Z,70.10
2022-08-26T08:14:50.133Z,70.22
2022-08-26T08:15:57.957Z,70.15
2022-08-26T08:17:08.548Z,69.70
2022-08-26T08:18:17.773Z,69.20
2022-08-26T08:19:36.572Z,69.03
2022-08-26T08:20:59.123Z,69.14
2022-08-26T08:22:17.194Z,68.96
2022-08-26T08:23:25.868Z,69.01
2022-08-26T08:24:35.749Z,69.34
2022-08-26T08:25:43.010Z,69.61
2022-08-26T08:26:50.266Z,69.49
2022-08-26T08:27:57.804Z,69.46
2022-08-26T08:29:04.874Z,69.32
2022-08-26T08:30:14.813Z,69.11
2022-08-26T08:33:06.391Z,68.85
2022-08-26T08:34:15.067Z,69.09
2022-08-26T08:35:27.470Z,69.24
2022-08-26T08:36:35.972Z,69.44
2022-08-26T08:37:44.068Z,69.82
2022-08-26T08:38:51.795Z,69.74
2022-08-26T08:40:00.257Z,69.68
2022-08-26T08:41:08.115Z,69.81
2022-08-26T08:42:29.266Z,70.11
2022-08-26T08:43:45.379Z,70.28
2022-08-26T08:44:53.573Z,70.09
2022-08-26T08:46:06.458Z,70.06
2022-08-26T08:47:39.698Z,69.92
2022-08-26T08:48:50.590Z,69.73
2022-08-26T08:50:01.442Z,70.20
2022-08-26T08:51:19.242Z,70.36
2022-08-26T08:52:34.162Z,70.35
2022-08-26T08:53:45.681Z,70.43
2022-08-26T08:54:53.225Z,70.67
2022-08-26T08:56:22.102Z,70.79
2022-08-26T08:57:47.121Z,70.75
2022-08-26T08:59:14.582Z,70.93
2022-08-26T09:00:30.396Z,70.95
2022-08-26T09:01:45.559Z,71.21
2022-08-26T09:03:08.568Z,71.57
2022-08-26T09:04:49.991Z,71.82
2022-08-26T09:06:00.120Z,72.11
2022-08-26T09:07:11.029Z,72.06
2022-08-26T09:08:24.424Z,71.85
2022-08-26T09:09:59.535Z,71.80
2022-08-26T09:11:07.115Z,71.48
2022-08-26T09:12:20.345Z,71.25
2022-08-26T09:13:27.740Z,71.56
2022-08-26T09:14:35.339Z,71.64
2022-08-26T09:16:03.042Z,71.98
2022-08-26T09:17:32.773Z,72.46
2022-08-26T09:19:06.840Z,72.88
2022-08-26T09:20:30.399Z,72.78
2022-08-26T09:21:38.397Z,73.07
2022-08-26T09:22:46.832Z,73.15
2022-08-26T09:23:54.782Z,72.70
2022-08-26T09:25:07.872Z,72.51
2022-08-26T09:26:48.113Z,72.57
2022-08-26T09:27:55.531Z,73.91
2022-08-26T09:29:03.898Z,73.73
2022-08-26T09:30:12.999Z,73.47
2022-08-26T09:31:33.893Z,73.32
2022-08-26T09:32:55.940Z,73.15
2022-08-26T09:34:27.080Z,73.47
2022-08-26T09:35:36.964Z,73.37
2022-08-26T09:36:47.544Z,73.12
2022-08-26T09:37:55.486Z,73.28
2022-08-26T09:39:04.766Z,73.32
2022-08-26T09:40:24.642Z,73.40
2022-08-26T09:41:38.165Z,73.22
2022-08-26T09:42:46.584Z,73.07
2022-08-26T09:44:14.633Z,73.10
2022-08-26T09:45:30.009Z,73.29
2022-08-26T09:46:37.725Z,73.55
2022-08-26T09:47:55.617Z,73.82
2022-08-26T09:49:35.518Z,74.08
2022-08-26T09:51:00.746Z,74.42
2022-08-26T09:52:25.576Z,74.27
2022-08-26T09:53:37.758Z,74.15
2022-08-26T09:54:46.109Z,74.44
2022-08-26T09:56:10.022Z,74.12
2022-08-26T09:57:27.953Z,74.18
2022-08-26T09:58:38.283Z,74.75
2022-08-26T09:59:46.070Z,74.67
2022-08-26T10:00:58.476Z,74.53
2022-08-26T10:02:31.172Z,74.64
2022-08-26T10:03:40.243Z,74.90
2022-08-26T10:04:57.000Z,74.81
2022-08-26T10:06:10.040Z,74.96
2022-08-26T10:07:20.223Z,75.20
2022-08-26T10:08:39.776Z,75.41
2022-08-26T10:09:51.564Z,75.71
2022-08-26T10:11:04.609Z,75.38
2022-08-26T10:12:19.655Z,75.18
2022-08-26T10:13:36.909Z,75.28
2022-08-26T10:14:51.009Z,75.54
2022-08-26T10:16:29.795Z,75.74
2022-08-26T10:18:03.206Z,76.22
2022-08-26T10:19:22.605Z,76.23
2022-08-26T10:20:30.927Z,76.33
2022-08-26T10:22:01.991Z,76.15
2022-08-26T10:23:19.883Z,76.02
2022-08-26T10:24:50.768Z,76.14
2022-08-26T10:26:29.164Z,75.71
2022-08-26T10:27:49.626Z,75.66
2022-08-26T10:29:25.138Z,75.66
2022-08-26T10:30:39.970Z,76.09
2022-08-26T10:31:58.759Z,76.64
2022-08-26T10:33:14.121Z,76.95
2022-08-26T10:34:24.074Z,77.16
2022-08-26T10:35:38.326Z,77.12
2022-08-26T10:37:14.362Z,77.17
2022-08-26T10:38:37.722Z,77.08
2022-08-26T10:40:09.918Z,76.97
2022-08-26T10:41:21.168Z,77.00
2022-08-26T10:42:47.778Z,77.76
2022-08-26T10:44:02.460Z,77.26
2022-08-26T10:45:26.910Z,76.97
2022-08-26T10:46:53.954Z,76.80
2022-08-26T10:48:14.875Z,76.31
2022-08-26T10:49:24.071Z,76.40
2022-08-26T10:50:42.879Z,76.74
2022-08-26T10:52:12.311Z,76.94
2022-08-26T10:53:33.201Z,77.85
2022-08-26T10:55:05.764Z,77.51
2022-08-26T10:56:37.306Z,77.26
2022-08-26T10:58:26.690Z,77.20
2022-08-26T11:00:31.427Z,77.09
2022-08-26T11:01:56.031Z,77.33
2022-08-26T11:03:35.245Z,77.30
2022-08-26T11:04:51.421Z,77.31
2022-08-26T11:06:23.975Z,77.38
2022-08-26T11:07:47.640Z,77.68
2022-08-26T11:08:58.868Z,78.27
2022-08-26T11:10:13.590Z,78.37
2022-08-26T11:11:43.661Z,78.23
2022-08-26T11:12:52.285Z,77.97
2022-08-26T11:14:11.538Z,77.82
2022-08-26T11:15:25.044Z,77.95
2022-08-26T11:16:42.897Z,77.71
2022-08-26T11:18:14.226Z,77.73
2022-08-26T11:19:59.466Z,77.86
2022-08-26T11:22:04.132Z,78.00
2022-08-26T11:23:16.369Z,77.93
2022-08-26T11:25:02.030Z,78.52
2022-08-26T11:26:36.319Z,79.23
2022-08-26T11:28:01.029Z,79.71
2022-08-26T11:29:13.401Z,80.38
2022-08-26T11:30:28.298Z,80.60
2022-08-26T11:31:41.976Z,80.42
2022-08-26T11:32:54.090Z,80.58
2022-08-26T11:34:05.802Z,80.60
2022-08-26T11:35:15.688Z,80.30
2022-08-26T11:36:34.656Z,80.14
2022-08-26T11:37:42.438Z,80.09
2022-08-26T11:38:51.040Z,80.19
2022-08-26T11:39:58.866Z,80.21
2022-08-26T11:41:12.441Z,80.31
2022-08-26T11:42:31.790Z,80.67
2022-08-26T11:43:44.670Z,80.93
2022-08-26T11:44:54.112Z,81.24
2022-08-26T11:46:09.253Z,80.96
2022-08-26T11:47:18.769Z,80.62
2022-08-26T11:48:37.707Z,80.43
2022-08-26T11:49:47.317Z,80.26
2022-08-26T11:51:25.310Z,80.28
2022-08-26T11:52:33.976Z,80.50
2022-08-26T11:53:44.260Z,80.52
2022-08-26T11:55:08.922Z,80.39
2022-08-26T11:56:36.588Z,81.04
2022-08-26T11:57:54.461Z,81.40
2022-08-26T11:59:03.067Z,81.40
2022-08-26T12:00:17.946Z,81.24
2022-08-26T12:01:40.849Z,81.50
2022-08-26T12:02:49.011Z,81.43
2022-08-26T12:04:00.164Z,81.55
2022-08-26T12:05:09.145Z,81.60
2022-08-26T12:06:45.027Z,81.45
2022-08-26T12:07:53.998Z,81.53
2022-08-26T12:09:36.677Z,81.50
2022-08-26T12:10:47.557Z,81.37
2022-08-26T12:12:18.255Z,81.63
2022-08-26T12:13:28.064Z,81.82
2022-08-26T12:14:37.947Z,81.87
2022-08-26T12:15:56.897Z,82.29
2022-08-26T12:17:19.391Z,82.54
2022-08-26T12:18:38.646Z,83.34
2022-08-26T12:19:45.798Z,83.42
2022-08-26T12:20:57.267Z,83.57
2022-08-26T12:22:26.699Z,83.77
2022-08-26T12:23:46.909Z,83.89
2022-08-26T12:24:55.369Z,84.04
2022-08-26T12:26:22.502Z,84.24
2022-08-26T12:27:31.048Z,84.50
2022-08-26T12:29:19.695Z,84.78
2022-08-26T12:30:32.441Z,84.74
2022-08-26T12:31:46.233Z,84.53
2022-08-26T12:33:21.891Z,84.72
2022-08-26T12:34:34.334Z,85.03
2022-08-26T12:35:42.343Z,85.17
2022-08-26T12:36:55.481Z,85.12
2022-08-26T12:38:03.515Z,85.05
2022-08-26T12:39:26.104Z,85.03
2022-08-26T12:40:42.835Z,84.86
2022-08-26T12:42:33.591Z,84.88
2022-08-26T12:43:43.130Z,84.61
2022-08-26T12:45:06.354Z,84.39
2022-08-26T12:46:19.377Z,84.25
2022-08-26T12:47:45.839Z,84.09
2022-08-26T12:48:54.588Z,83.80
2022-08-26T12:50:08.456Z,83.71
2022-08-26T12:51:24.468Z,83.67
2022-08-26T12:52:36.394Z,83.67
2022-08-26T12:53:45.514Z,83.82
2022-08-26T12:55:08.224Z,83.91
2022-08-26T12:56:42.320Z,83.71
2022-08-26T12:57:52.360Z,83.78
2022-08-26T12:59:25.484Z,83.76
2022-08-26T13:00:38.553Z,83.76
2022-08-26T13:01:46.254Z,83.84
2022-08-26T13:02:55.225Z,83.84
2022-08-26T13:04:04.008Z,84.09
2022-08-26T13:05:37.349Z,84.28
2022-08-26T13:06:45.568Z,84.33
2022-08-26T13:08:40.882Z,84.41
2022-08-26T13:09:52.183Z,84.29
2022-08-26T13:11:06.193Z,84.28
2022-08-26T13:12:39.069Z,84.39
2022-08-26T13:13:53.598Z,84.36
2022-08-26T13:15:01.963Z,84.30
2022-08-26T13:16:10.118Z,84.31
2022-08-26T13:17:18.613Z,84.20
2022-08-26T13:18:27.690Z,84.05
2022-08-26T13:19:37.699Z,83.88
2022-08-26T13:20:45.955Z,83.86
2022-08-26T13:21:55.449Z,84.27
2022-08-26T13:23:04.587Z,84.28
2022-08-26T13:24:18.604Z,84.42
2022-08-26T13:25:29.304Z,84.63
2022-08-26T13:26:38.308Z,84.67
2022-08-26T13:27:46.790Z,84.74
2022-08-26T13:29:01.725Z,84.58
2022-08-26T13:30:11.089Z,84.55
2022-08-26T13:31:21.721Z,84.25
2022-08-26T13:32:36.367Z,84.15
2022-08-26T13:33:46.821Z,83.78
2022-08-26T13:34:56.426Z,83.76
2022-08-26T13:36:04.399Z,83.88
2022-08-26T13:37:11.837Z,83.81
2022-08-26T13:38:32.921Z,83.62
2022-08-26T13:39:43.638Z,83.43
2022-08-26T13:40:53.837Z,83.29
2022-08-26T13:42:02.676Z,83.12
2022-08-26T13:43:09.947Z,83.07
2022-08-26T13:44:19.461Z,82.83
2022-08-26T13:45:26.953Z,82.38
2022-08-26T13:46:34.343Z,82.21
2022-08-26T13:47:43.029Z,81.90
2022-08-26T13:48:54.661Z,81.58
2022-08-26T13:50:01.897Z,81.03
2022-08-26T13:51:09.975Z,80.64
2022-08-26T13:52:18.835Z,80.44
2022-08-26T13:53:40.081Z,80.39
2022-08-26T13:54:52.298Z,80.55
2022-08-26T13:56:01.853Z,80.57
2022-08-26T13:57:09.362Z,80.25
2022-08-26T13:58:17.942Z,79.52
2022-08-26T13:59:25.776Z,78.44
2022-08-26T14:00:35.156Z,77.47
2022-08-26T14:01:43.692Z,77.15
2022-08-26T14:02:52.576Z,76.43
2022-08-26T14:04:01.995Z,75.96
2022-08-26T14:05:09.423Z,75.39
2022-08-26T14:06:17.701Z,74.62
2022-08-26T14:07:25.063Z,73.66
2022-08-26T14:08:34.081Z,72.93
2022-08-26T14:09:42.144Z,72.43
2022-08-26T14:12:02.805Z,70.78
2022-08-26T14:13:13.805Z,70.15
2022-08-26T14:14:21.388Z,69.16
2022-08-26T14:15:28.958Z,68.36
2022-08-26T14:16:59.004Z,67.69
2022-08-26T14:18:09.674Z,66.90
2022-08-26T14:19:19.418Z,66.18
2022-08-26T14:20:33.631Z,65.73
2022-08-26T14:21:47.182Z,65.51
2022-08-26T14:23:13.302Z,65.18
2022-08-26T14:24:30.895Z,65.23
2022-08-26T14:25:50.895Z,64.95
2022-08-26T14:27:02.161Z,64.91
2022-08-26T14:28:10.172Z,64.66
2022-08-26T14:29:18.508Z,64.22
2022-08-26T14:30:28.506Z,63.91
2022-08-26T14:31:39.573Z,63.67
2022-08-26T14:33:00.761Z,63.43
2022-08-26T14:34:14.082Z,63.27
2022-08-26T14:35:26.818Z,63.13
2022-08-26T14:36:37.282Z,62.86
2022-08-26T14:37:50.889Z,62.17
2022-08-26T14:39:18.412Z,61.49
2022-08-26T14:40:26.897Z,60.88
2022-08-26T14:41:36.285Z,60.18
2022-08-26T14:42:52.795Z,59.24
2022-08-26T14:44:07.974Z,58.98
2022-08-26T14:45:19.315Z,58.53
2022-08-26T14:46:30.954Z,58.36
2022-08-26T14:47:40.054Z,58.16
2022-08-26T14:48:52.708Z,57.78
2022-08-26T14:50:06.500Z,57.95
2022-08-26T14:51:16.360Z,58.12
2022-08-26T14:52:25.979Z,58.07
2022-08-26T14:53:54.322Z,57.51
2022-08-26T14:55:02.656Z,57.76
2022-08-26T14:56:12.674Z,57.84
2022-08-26T14:57:25.469Z,58.08
2022-08-26T14:58:34.751Z,58.08
2022-08-26T14:59:49.992Z,58.14
2022-08-26T15:01:04.434Z,58.34
2022-08-26T15:02:15.795Z,58.25
2022-08-26T15:03:42.529Z,58.36
2022-08-26T15:04:51.932Z,57.71
2022-08-26T15:05:59.692Z,57.96
2022-08-26T15:07:08.281Z,58.38
2022-08-26T15:08:23.696Z,58.13
2022-08-26T15:09:32.179Z,58.36
2022-08-26T15:10:43.211Z,58.77
2022-08-26T15:11:51.454Z,58.39
2022-08-26T15:12:59.178Z,58.29
2022-08-26T15:14:08.660Z,57.88
2022-08-26T15:15:31.257Z,57.66
2022-08-26T15:16:39.463Z,57.94
2022-08-26T15:17:47.484Z,57.23
2022-08-26T15:19:00.096Z,57.10
2022-08-26T15:20:11.984Z,56.73
2022-08-26T15:21:20.766Z,56.66
2022-08-26T15:22:29.451Z,56.70
2022-08-26T15:23:41.004Z,56.31
2022-08-26T15:24:56.015Z,55.56
2022-08-26T15:26:03.933Z,55.21
2022-08-26T15:27:20.233Z,54.70
2022-08-26T15:28:30.732Z,54.23
2022-08-26T15:29:41.446Z,52.87
2022-08-26T15:30:52.531Z,51.09
2022-08-26T15:32:02.975Z,50.74
2022-08-26T15:33:15.362Z,50.94
2022-08-26T15:34:28.953Z,50.86
2022-08-26T15:35:38.553Z,50.29
2022-08-26T15:36:57.864Z,49.70
2022-08-26T15:38:04.918Z,49.13
2022-08-26T15:39:15.094Z,48.75
2022-08-26T15:40:24.066Z,49.02
2022-08-26T15:41:34.725Z,48.50
2022-08-26T15:42:45.751Z,48.60
2022-08-26T15:44:03.791Z,48.83
2022-08-26T15:45:13.788Z,48.93
2022-08-26T15:46:36.360Z,48.24
2022-08-26T15:48:04.314Z,47.93
2022-08-26T15:49:17.604Z,47.39